Time;durP1;ratioP1;P1;durP2;ratioP2;P2;SDS_P1;SDS_P2;PMS_P1;PMS_P2;Temp;Humidity;BMP_temperature;BMP_pressure;BME280_temperature;BME280_humidity;BME280_pressure;Samples;Min_cycle;Max_cycle;Signal;HPM_P1;HPM_P2
2021/04/13 00:00:01;;;;;;;12.52;11.32;;;1.40;99.90;;;;;;4910547;29;20206;-64
2021/04/13 00:02:49;;;;;;;12.27;11.07;;;1.40;99.90;;;;;;4915287;29;20292;-64
2021/04/13 00:05:25;;;;;;;16.15;11.40;;;1.50;99.90;;;;;;4915451;29;20648;-64
2021/04/13 00:07:52;;;;;;;14.02;12.63;;;1.40;99.90;;;;;;4916795;29;20288;-64
2021/04/13 00:10:21;;;;;;;14.80;12.25;;;1.50;99.90;;;;;;4916970;29;20214;-64
2021/04/13 00:12:48;;;;;;;15.60;12.35;;;1.50;99.90;;;;;;4916589;29;20206;-64
2021/04/13 00:15:17;;;;;;;13.63;12.23;;;1.50;99.90;;;;;;4915675;29;20308;-64
2021/04/13 00:17:46;;;;;;;14.48;12.98;;;1.50;99.90;;;;;;4916409;29;20708;-64
2021/04/13 00:20:18;;;;;;;16.25;13.32;;;1.60;99.90;;;;;;4916441;29;20229;-64
2021/04/13 00:22:46;;;;;;;14.27;12.77;;;1.50;99.90;;;;;;4916202;29;20677;-64
2021/04/13 00:25:23;;;;;;;14.25;12.75;;;1.50;99.90;;;;;;4915649;29;20684;-64
2021/04/13 00:27:50;;;;;;;14.10;12.30;;;1.50;99.90;;;;;;4916557;29;20332;-64
2021/04/13 00:30:19;;;;;;;15.18;13.63;;;1.40;99.90;;;;;;4916612;29;20210;-64
2021/04/13 00:32:55;;;;;;;14.90;12.40;;;1.40;99.90;;;;;;4916361;29;20198;-64
2021/04/13 00:35:33;;;;;;;13.32;12.02;;;1.30;99.90;;;;;;4915872;29;20222;-64
2021/04/13 00:38:31;;;;;;;12.88;11.40;;;1.30;99.90;;;;;;4916758;29;20218;-64
2021/04/13 00:41:07;;;;;;;11.90;10.65;;;1.20;99.90;;;;;;4835250;29;20202;-64
2021/04/13 00:43:42;;;;;;;13.45;12.05;;;1.10;99.90;;;;;;4896803;29;20204;-64
2021/04/13 00:46:10;;;;;;;11.52;10.30;;;1.10;99.90;;;;;;4915434;29;20199;-64
2021/04/13 00:48:40;;;;;;;15.23;12.77;;;1.00;99.90;;;;;;4916470;29;20209;-64
2021/04/13 00:51:10;;;;;;;13.95;12.52;;;1.00;99.90;;;;;;4916730;29;20551;-64
2021/04/13 00:53:38;;;;;;;13.98;12.55;;;1.00;99.90;;;;;;4915963;29;20212;-64
2021/04/13 00:56:10;;;;;;;14.63;13.13;;;0.90;99.90;;;;;;4915387;29;20603;-64
2021/04/13 00:58:39;;;;;;;15.90;12.55;;;0.90;99.90;;;;;;4916188;29;20233;-63
2021/04/13 01:01:10;;;;;;;15.90;13.65;;;1.00;99.90;;;;;;4916362;29;20242;-64
2021/04/13 01:03:46;;;;;;;16.23;14.45;;;1.00;99.90;;;;;;4915816;29;20298;-64
2021/04/13 01:06:21;;;;;;;14.48;12.95;;;0.90;99.90;;;;;;4916156;29;20567;-64
2021/04/13 01:08:47;;;;;;;15.07;13.35;;;0.90;99.90;;;;;;4915673;29;20202;-64
2021/04/13 01:11:18;;;;;;;16.08;14.40;;;1.00;99.90;;;;;;4916112;29;20600;-64
2021/04/13 01:13:49;;;;;;;16.77;14.38;;;0.90;99.90;;;;;;4912843;29;20625;-63
2021/04/13 01:16:18;;;;;;;21.27;15.88;;;1.00;99.90;;;;;;4913397;29;20813;-64
2021/04/13 01:18:52;;;;;;;16.55;14.70;;;1.00;99.90;;;;;;4913182;29;20952;-64
2021/04/13 01:21:37;;;;;;;16.02;14.35;;;1.00;99.90;;;;;;4913427;29;20245;-64
2021/04/13 01:24:11;;;;;;;16.63;14.55;;;1.10;99.90;;;;;;4912822;29;20641;-63
2021/04/13 01:26:43;;;;;;;17.13;14.85;;;1.10;99.90;;;;;;4913024;29;20688;-63
2021/04/13 01:29:11;;;;;;;17.50;15.05;;;1.10;99.90;;;;;;4913219;29;20191;-63
2021/04/13 01:31:43;;;;;;;16.48;14.73;;;1.00;99.90;;;;;;4912903;29;20677;-63
2021/04/13 01:34:18;;;;;;;17.98;15.40;;;1.00;99.90;;;;;;4912271;29;20195;-64
2021/04/13 01:36:46;;;;;;;17.23;15.38;;;1.00;99.90;;;;;;4912769;29;20234;-63
2021/04/13 01:39:18;;;;;;;17.23;14.63;;;1.00;99.90;;;;;;4912613;29;20202;-64
2021/04/13 01:41:57;;;;;;;17.90;15.90;;;0.90;99.90;;;;;;4912420;29;20685;-63
2021/04/13 01:44:28;;;;;;;16.05;14.35;;;0.90;99.90;;;;;;4911533;29;20636;-64
2021/04/13 01:46:55;;;;;;;18.83;15.70;;;0.80;99.90;;;;;;4912340;29;20218;-64
2021/04/13 01:49:23;;;;;;;17.60;15.88;;;0.80;99.90;;;;;;4913012;29;20202;-64
2021/04/13 01:51:50;;;;;;;16.98;15.27;;;0.90;99.90;;;;;;4911910;29;20593;-64
2021/04/13 01:54:17;;;;;;;21.65;16.75;;;0.90;99.90;;;;;;4911473;29;20684;-64
2021/04/13 01:56:55;;;;;;;17.77;15.57;;;0.80;99.90;;;;;;4912124;29;20242;-63
2021/04/13 01:59:26;;;;;;;20.40;16.88;;;0.90;99.90;;;;;;4912626;29;20208;-64
2021/04/13 02:01:57;;;;;;;17.95;16.08;;;0.90;99.90;;;;;;4912415;29;20203;-63
2021/04/13 02:04:29;;;;;;;16.67;14.68;;;1.00;99.90;;;;;;4911133;29;20210;-63
2021/04/13 02:07:04;;;;;;;21.17;15.48;;;0.90;99.90;;;;;;4912481;29;20210;-63
2021/04/13 02:09:38;;;;;;;18.67;15.65;;;0.90;99.90;;;;;;4912202;29;20222;-63
2021/04/13 02:12:10;;;;;;;19.83;16.90;;;1.00;99.90;;;;;;4912076;29;20266;-63
2021/04/13 02:14:42;;;;;;;20.63;17.85;;;1.00;99.90;;;;;;4911121;29;20207;-63
2021/04/13 02:17:12;;;;;;;19.58;17.13;;;1.00;99.90;;;;;;4912197;29;20239;-64
2021/04/13 02:19:46;;;;;;;20.58;17.27;;;1.00;99.90;;;;;;4912054;29;20305;-64
2021/04/13 02:22:15;;;;;;;22.25;16.75;;;1.00;99.90;;;;;;4912089;29;20211;-64
2021/04/13 02:24:42;;;;;;;18.33;16.42;;;1.00;99.90;;;;;;4911350;29;20285;-63
2021/04/13 02:27:11;;;;;;;16.80;14.82;;;0.90;99.90;;;;;;4911982;29;20207;-63
2021/04/13 02:29:41;;;;;;;17.00;15.23;;;0.90;99.90;;;;;;4911689;29;20215;-63
2021/04/13 02:32:15;;;;;;;17.77;15.95;;;0.80;99.90;;;;;;4912024;29;20210;-64
2021/04/13 02:34:45;;;;;;;19.42;15.27;;;0.70;99.90;;;;;;4910621;29;20731;-64
2021/04/13 02:37:16;;;;;;;18.00;14.80;;;0.60;99.90;;;;;;4911631;29;20226;-64
2021/04/13 02:39:43;;;;;;;18.40;15.40;;;0.50;99.90;;;;;;4911801;29;20214;-64
2021/04/13 02:42:18;;;;;;;18.52;16.52;;;0.40;99.90;;;;;;4911736;29;20214;-64
2021/04/13 02:44:54;;;;;;;19.17;15.32;;;0.40;99.90;;;;;;4910898;29;20210;-63
2021/04/13 02:47:22;;;;;;;17.05;15.25;;;0.50;99.90;;;;;;4912164;29;20210;-64
2021/04/13 02:49:50;;;;;;;19.23;16.20;;;0.50;99.90;;;;;;4911730;29;20207;-63
2021/04/13 02:52:23;;;;;;;18.88;16.85;;;0.50;99.90;;;;;;4911875;29;20207;-63
2021/04/13 02:54:53;;;;;;;22.63;18.60;;;0.40;99.90;;;;;;4910331;29;20210;-64
2021/04/13 02:57:23;;;;;;;20.73;17.90;;;0.50;99.90;;;;;;4911286;29;20235;-64
2021/04/13 02:59:51;;;;;;;21.15;17.08;;;0.50;99.90;;;;;;4911442;29;20825;-64
2021/04/13 03:02:24;;;;;;;23.80;18.02;;;0.40;99.90;;;;;;4911318;29;20285;-64
2021/04/13 03:04:53;;;;;;;21.55;17.35;;;0.40;99.90;;;;;;4910806;29;20214;-64
2021/04/13 03:07:22;;;;;;;21.35;16.77;;;0.30;99.90;;;;;;4911526;29;20264;-64
2021/04/13 03:09:50;;;;;;;22.40;16.70;;;0.20;99.90;;;;;;4911136;29;20237;-64
2021/04/13 03:12:18;;;;;;;24.45;18.30;;;0.20;99.90;;;;;;4911307;29;20206;-63
2021/04/13 03:14:49;;;;;;;20.05;17.08;;;0.20;99.90;;;;;;4910855;29;20313;-63
2021/04/13 03:17:21;;;;;;;20.70;17.80;;;0.20;99.90;;;;;;4911619;29;20679;-64
2021/04/13 03:19:49;;;;;;;21.77;19.15;;;0.20;99.90;;;;;;4910699;29;20214;-63
2021/04/13 03:22:19;;;;;;;20.90;18.25;;;0.20;99.90;;;;;;4910700;29;20788;-64
2021/04/13 03:24:48;;;;;;;24.73;18.05;;;0.20;99.90;;;;;;4910108;29;20578;-64
2021/04/13 03:27:18;;;;;;;19.77;17.67;;;0.20;99.90;;;;;;4911440;29;20321;-63
2021/04/13 03:29:50;;;;;;;23.70;19.67;;;0.30;99.90;;;;;;4910663;29;20272;-63
2021/04/13 03:32:20;;;;;;;20.38;18.27;;;0.40;99.90;;;;;;4910710;29;20220;-63
2021/04/13 03:34:46;;;;;;;19.95;17.63;;;0.40;99.90;;;;;;4910098;29;20502;-63
2021/04/13 03:37:15;;;;;;;23.60;19.33;;;0.50;99.90;;;;;;4910584;29;20238;-64
2021/04/13 03:39:43;;;;;;;20.00;17.98;;;0.50;99.90;;;;;;4910287;29;20206;-64
2021/04/13 03:42:15;;;;;;;24.17;19.65;;;0.60;99.90;;;;;;4909488;29;20246;-64
2021/04/13 03:44:43;;;;;;;25.30;18.20;;;0.60;99.90;;;;;;4910046;29;20708;-64
2021/04/13 03:47:12;;;;;;;30.05;20.75;;;0.60;99.90;;;;;;4910788;29;21303;-64
2021/04/13 03:49:40;;;;;;;20.02;16.95;;;0.50;99.90;;;;;;4910007;29;20297;-64
2021/04/13 03:52:09;;;;;;;22.00;19.60;;;0.50;99.90;;;;;;4910820;29;20618;-64
2021/04/13 03:54:39;;;;;;;24.55;21.23;;;0.60;99.90;;;;;;4910131;29;20211;-64
2021/04/13 03:57:07;;;;;;;24.90;20.70;;;0.50;99.90;;;;;;4910569;29;20242;-63
2021/04/13 03:59:36;;;;;;;24.13;21.10;;;0.50;99.90;;;;;;4910656;29;20257;-64
2021/04/13 04:02:06;;;;;;;23.58;20.65;;;0.50;99.90;;;;;;4904254;29;20261;-64
2021/04/13 04:04:41;;;;;;;23.77;20.17;;;0.50;99.90;;;;;;4898469;29;20290;-64
2021/04/13 04:07:23;;;;;;;24.85;20.08;;;0.60;99.90;;;;;;4893280;29;20203;-65
2021/04/13 04:09:50;;;;;;;21.80;18.50;;;0.60;99.90;;;;;;4910459;29;20245;-64
2021/04/13 04:12:22;;;;;;;24.02;19.92;;;0.50;99.90;;;;;;4910248;29;20576;-64
2021/04/13 04:15:00;;;;;;;23.38;20.00;;;0.50;99.90;;;;;;4910306;29;20671;-64
2021/04/13 04:17:30;;;;;;;23.55;20.92;;;0.40;99.90;;;;;;4910015;29;20321;-64
2021/04/13 04:19:58;;;;;;;22.95;19.67;;;0.30;99.90;;;;;;4910551;29;20237;-64
2021/04/13 04:22:25;;;;;;;23.73;19.60;;;0.20;99.90;;;;;;4910454;29;20700;-65
2021/04/13 04:24:52;;;;;;;22.75;19.13;;;0.20;99.90;;;;;;4909121;29;20206;-64
2021/04/13 04:27:27;;;;;;;25.02;21.02;;;0.20;99.90;;;;;;4910307;29;20216;-64
2021/04/13 04:30:08;;;;;;;22.95;19.70;;;0.10;99.90;;;;;;4909920;29;20222;-64
2021/04/13 04:32:43;;;;;;;24.10;19.15;;;0.10;99.90;;;;;;4910653;29;20210;-64
2021/04/13 04:35:29;;;;;;;25.25;20.42;;;0.00;99.90;;;;;;4909160;29;20350;-64
2021/04/13 04:38:04;;;;;;;23.75;19.60;;;0.00;99.90;;;;;;4909520;29;20203;-64
2021/04/13 04:40:56;;;;;;;25.13;19.90;;;0.10;99.90;;;;;;4909772;29;20852;-64
2021/04/13 04:43:52;;;;;;;24.83;19.75;;;0.00;99.90;;;;;;4891803;29;20219;-64
2021/04/13 04:46:39;;;;;;;22.40;19.77;;;-0.10;99.90;;;;;;4898131;29;20202;-64
2021/04/13 04:49:09;;;;;;;23.30;19.45;;;-0.10;99.90;;;;;;4912432;29;21048;-64
2021/04/13 04:51:35;;;;;;;24.73;19.35;;;-0.10;99.90;;;;;;4914235;29;20210;-64
2021/04/13 04:54:02;;;;;;;24.75;19.58;;;-0.10;99.90;;;;;;4913351;29;20637;-64
2021/04/13 04:56:28;;;;;;;24.98;20.67;;;0.00;99.90;;;;;;4912893;29;20230;-64
2021/04/13 04:58:55;;;;;;;22.88;20.10;;;0.20;99.90;;;;;;4913405;29;20213;-64
2021/04/13 05:01:22;;;;;;;24.33;20.38;;;0.20;99.90;;;;;;4909723;29;20638;-64
2021/04/13 05:03:48;;;;;;;24.85;20.48;;;0.20;99.90;;;;;;4913152;29;20211;-64
2021/04/13 05:06:15;;;;;;;26.85;22.00;;;0.20;99.90;;;;;;4912265;29;20297;-64
2021/04/13 05:08:42;;;;;;;27.08;23.05;;;0.20;99.90;;;;;;4913215;29;20684;-66
2021/04/13 05:11:08;;;;;;;31.15;24.75;;;0.20;99.90;;;;;;4913089;29;20305;-66
2021/04/13 05:13:34;;;;;;;27.60;21.92;;;0.30;99.90;;;;;;4913572;29;20290;-66
2021/04/13 05:16:02;;;;;;;28.50;25.00;;;0.30;99.90;;;;;;4912749;29;20226;-67
2021/04/13 05:18:28;;;;;;;28.80;24.35;;;0.40;99.90;;;;;;4910319;29;20233;-66
2021/04/13 05:20:54;;;;;;;26.48;22.63;;;0.50;99.90;;;;;;4885439;29;20210;-66
2021/04/13 05:23:21;;;;;;;32.88;24.17;;;0.70;99.90;;;;;;4893461;29;20210;-66
2021/04/13 05:25:48;;;;;;;30.88;23.27;;;1.10;99.90;;;;;;4885936;29;20267;-67
2021/04/13 05:28:14;;;;;;;28.00;24.15;;;1.60;99.90;;;;;;4886765;29;20214;-66
2021/04/13 05:30:40;;;;;;;25.35;21.40;;;2.40;99.90;;;;;;4888625;29;20203;-66
2021/04/13 05:33:08;;;;;;;23.30;18.65;;;3.50;99.90;;;;;;4893490;29;20207;-66
2021/04/13 05:35:35;;;;;;;18.77;16.42;;;4.50;99.90;;;;;;4887953;29;20265;-66
2021/04/13 05:38:05;;;;;;;17.73;15.93;;;5.20;99.90;;;;;;4890655;29;20209;-66
2021/04/13 05:40:34;;;;;;;16.75;14.95;;;5.50;99.90;;;;;;4884088;29;20214;-66
2021/04/13 05:43:01;;;;;;;17.50;14.52;;;5.10;99.90;;;;;;4889332;29;20583;-66
2021/04/13 05:45:31;;;;;;;17.42;14.48;;;4.60;99.90;;;;;;4885999;29;20223;-66
2021/04/13 05:47:58;;;;;;;16.30;14.48;;;4.30;99.90;;;;;;4885808;29;20753;-66
2021/04/13 05:50:29;;;;;;;15.50;13.85;;;4.30;99.90;;;;;;4890005;29;20215;-66
2021/04/13 05:52:55;;;;;;;16.38;14.75;;;4.90;99.90;;;;;;4885577;29;20215;-66
2021/04/13 05:55:22;;;;;;;15.15;13.75;;;5.50;99.90;;;;;;4891604;29;20215;-66
2021/04/13 05:57:51;;;;;;;13.45;12.10;;;7.30;99.90;;;;;;4891370;29;20354;-66
2021/04/13 06:00:20;;;;;;;12.82;11.63;;;8.80;97.40;;;;;;4888277;29;20297;-66
2021/04/13 06:02:46;;;;;;;11.52;10.25;;;9.30;92.90;;;;;;4896032;29;20243;-66
2021/04/13 06:05:14;;;;;;;11.15;10.18;;;9.00;92.20;;;;;;4889517;29;20204;-66
2021/04/13 06:07:41;;;;;;;11.80;10.48;;;8.80;91.80;;;;;;4893439;29;20207;-66
2021/04/13 06:10:09;;;;;;;13.13;11.85;;;8.00;92.10;;;;;;4892944;29;20213;-66
2021/04/13 06:12:35;;;;;;;13.30;11.98;;;7.30;93.00;;;;;;4893480;29;20211;-66
2021/04/13 06:15:02;;;;;;;12.90;11.60;;;7.40;94.30;;;;;;4886863;29;20211;-66
2021/04/13 06:17:29;;;;;;;12.43;11.15;;;8.40;93.00;;;;;;4893299;29;20581;-66
2021/04/13 06:19:55;;;;;;;12.10;10.93;;;9.30;91.10;;;;;;4881932;29;20210;-67
2021/04/13 06:22:21;;;;;;;12.93;11.68;;;9.70;90.40;;;;;;4885211;29;20712;-67
2021/04/13 06:24:49;;;;;;;14.07;12.77;;;10.00;88.10;;;;;;4891052;29;20611;-66
2021/04/13 06:27:15;;;;;;;13.25;12.05;;;9.70;88.60;;;;;;4884741;29;20215;-67
2021/04/13 06:29:42;;;;;;;12.15;10.95;;;9.40;89.20;;;;;;4886410;29;20665;-66
2021/04/13 06:32:09;;;;;;;14.05;12.65;;;9.10;89.50;;;;;;4890066;29;20777;-66
2021/04/13 06:34:36;;;;;;;13.98;12.73;;;8.50;90.10;;;;;;4886043;29;20238;-66
2021/04/13 06:37:05;;;;;;;13.23;11.88;;;8.40;90.90;;;;;;4886655;29;20341;-66
2021/04/13 06:39:33;;;;;;;12.75;11.43;;;8.80;90.20;;;;;;4891022;29;20235;-67
2021/04/13 06:42:13;;;;;;;13.35;11.95;;;9.20;89.60;;;;;;4889141;29;20203;-67
2021/04/13 06:45:04;;;;;;;12.50;11.25;;;9.60;88.30;;;;;;4885511;29;20241;-66
2021/04/13 06:47:52;;;;;;;15.30;11.95;;;9.80;86.60;;;;;;4890703;29;20628;-67
2021/04/13 06:50:29;;;;;;;13.00;11.63;;;9.80;86.70;;;;;;4891864;29;20658;-67
2021/04/13 06:53:05;;;;;;;12.10;11.00;;;9.50;85.30;;;;;;4883288;29;20338;-67
2021/04/13 06:56:07;;;;;;;13.15;11.75;;;9.30;87.70;;;;;;4887652;29;20215;-67
2021/04/13 06:58:57;;;;;;;12.48;11.18;;;8.60;88.40;;;;;;4885843;29;20217;-67
2021/04/13 07:01:28;;;;;;;12.45;11.20;;;8.00;90.20;;;;;;4890636;29;20669;-67
2021/04/13 07:03:59;;;;;;;13.15;11.75;;;7.40;90.70;;;;;;4884638;29;20218;-66
2021/04/13 07:06:33;;;;;;;11.63;10.52;;;7.10;91.60;;;;;;4891211;29;20207;-66
2021/04/13 07:09:04;;;;;;;13.25;11.85;;;6.90;91.90;;;;;;4887847;29;20583;-67
2021/04/13 07:11:35;;;;;;;14.00;12.63;;;7.40;91.80;;;;;;4884429;29;20243;-66
2021/04/13 07:14:06;;;;;;;12.20;10.90;;;7.90;91.10;;;;;;4889349;29;20226;-66
2021/04/13 07:16:38;;;;;;;13.45;11.55;;;8.60;90.40;;;;;;4889275;29;20245;-66
2021/04/13 07:19:13;;;;;;;11.50;10.30;;;9.40;88.10;;;;;;4890999;29;20207;-66
2021/04/13 07:21:43;;;;;;;11.00;9.88;;;10.00;84.60;;;;;;4891572;29;20841;-66
2021/04/13 07:24:18;;;;;;;12.18;10.98;;;10.50;83.30;;;;;;4890688;29;20297;-66
2021/04/13 07:26:52;;;;;;;11.75;10.68;;;11.10;81.00;;;;;;4889133;29;20691;-66
2021/04/13 07:29:25;;;;;;;13.10;11.88;;;11.70;80.10;;;;;;4890653;29;20334;-65
2021/04/13 07:32:01;;;;;;;12.65;11.35;;;12.40;77.40;;;;;;4891573;29;20286;-65
2021/04/13 07:34:29;;;;;;;12.90;11.60;;;11.70;76.10;;;;;;4889810;29;20270;-65
2021/04/13 07:37:01;;;;;;;12.30;11.10;;;10.70;77.80;;;;;;4888719;29;20321;-65
2021/04/13 07:39:28;;;;;;;13.23;11.95;;;10.00;80.00;;;;;;4891174;29;20206;-65
2021/04/13 07:42:01;;;;;;;13.63;12.30;;;9.40;83.90;;;;;;4890008;29;20346;-65
2021/04/13 07:44:42;;;;;;;13.63;12.23;;;9.40;84.60;;;;;;4884319;29;20215;-65
2021/04/13 07:47:20;;;;;;;13.93;12.43;;;9.30;85.10;;;;;;4887038;29;20207;-65
2021/04/13 07:49:51;;;;;;;14.05;12.65;;;10.00;83.80;;;;;;4889202;29;20207;-65
2021/04/13 07:52:36;;;;;;;12.18;11.05;;;9.90;82.10;;;;;;4888476;29;20218;-64
2021/04/13 07:55:11;;;;;;;13.75;12.25;;;9.30;81.80;;;;;;4885975;29;20298;-65
2021/04/13 07:57:42;;;;;;;13.23;11.82;;;8.30;85.90;;;;;;4887195;29;20222;-65
2021/04/13 08:00:19;;;;;;;14.55;13.05;;;8.40;87.80;;;;;;4890936;29;20207;-65
2021/04/13 08:02:50;;;;;;;14.23;12.73;;;8.40;88.00;;;;;;4890234;29;20214;-65
2021/04/13 08:05:37;;;;;;;15.25;13.70;;;8.30;89.20;;;;;;4885664;29;20210;-65
2021/04/13 08:08:06;;;;;;;15.05;12.13;;;8.10;89.00;;;;;;4886296;29;20350;-64
2021/04/13 08:10:36;;;;;;;13.20;11.90;;;7.90;89.10;;;;;;4889812;29;20310;-65
2021/04/13 08:13:06;;;;;;;13.27;11.88;;;7.90;89.10;;;;;;4890200;29;20211;-64
2021/04/13 08:15:48;;;;;;;11.25;10.07;;;7.90;88.60;;;;;;4890366;29;20207;-64
2021/04/13 08:18:23;;;;;;;12.10;9.90;;;7.90;86.70;;;;;;4888447;29;20948;-65
2021/04/13 08:20:50;;;;;;;12.00;10.90;;;8.20;84.00;;;;;;4882901;29;20747;-64
2021/04/13 08:23:36;;;;;;;13.85;11.68;;;8.30;83.50;;;;;;4890202;29;20211;-64
2021/04/13 08:26:17;;;;;;;13.73;11.52;;;8.10;86.60;;;;;;4893639;29;20214;-64
2021/04/13 08:28:49;;;;;;;14.90;11.40;;;8.00;86.60;;;;;;4893507;29;20314;-64
2021/04/13 08:34:32;;;;;;;11.75;10.55;;;8.70;87.60;;;;;;4888889;29;20219;-64
2021/04/13 08:37:08;;;;;;;13.32;11.77;;;8.60;83.40;;;;;;4887227;29;20266;-64
2021/04/13 08:39:41;;;;;;;11.55;10.38;;;8.30;84.00;;;;;;4890742;29;20684;-64
2021/04/13 08:42:20;;;;;;;11.23;10.13;;;7.80;81.60;;;;;;4891049;29;20215;-65
2021/04/13 08:44:54;;;;;;;13.30;10.07;;;7.60;82.80;;;;;;4891170;29;20784;-64
2021/04/13 08:47:23;;;;;;;10.70;9.60;;;7.50;84.00;;;;;;4887681;29;20211;-65
2021/04/13 08:49:54;;;;;;;10.95;9.85;;;7.50;84.90;;;;;;4894389;29;20738;-64
2021/04/13 08:52:42;;;;;;;13.05;10.40;;;7.90;87.00;;;;;;4893174;29;20215;-65
2021/04/13 08:55:13;;;;;;;11.55;10.43;;;8.00;86.70;;;;;;4893825;29;20211;-65
2021/04/13 08:57:41;;;;;;;12.60;11.30;;;8.10;84.20;;;;;;4894138;29;20280;-65
2021/04/13 09:00:38;;;;;;;13.77;10.77;;;8.20;83.30;;;;;;4892211;29;20239;-66
2021/04/13 09:03:08;;;;;;;9.50;8.50;;;8.30;83.50;;;;;;4890249;29;20213;-65
2021/04/13 09:05:38;;;;;;;13.57;12.23;;;8.50;84.50;;;;;;4892580;29;20297;-65
2021/04/13 09:08:22;;;;;;;11.07;9.98;;;8.70;83.30;;;;;;4892423;29;20203;-65
2021/04/13 09:11:03;;;;;;;11.02;9.93;;;8.70;81.40;;;;;;4892302;29;20203;-65
2021/04/13 09:13:34;;;;;;;10.15;9.00;;;8.50;80.80;;;;;;4893792;29;20214;-65
2021/04/13 09:16:13;;;;;;;12.32;10.65;;;8.60;81.50;;;;;;4892557;29;20204;-65
2021/04/13 09:18:54;;;;;;;13.13;11.40;;;9.30;82.10;;;;;;4892951;29;20350;-65
2021/04/13 09:21:39;;;;;;;10.00;9.00;;;9.90;82.10;;;;;;4891889;29;20211;-65
2021/04/13 09:24:20;;;;;;;10.55;9.45;;;10.50;77.20;;;;;;4894178;29;20225;-65
2021/04/13 09:27:02;;;;;;;10.98;9.88;;;10.00;76.50;;;;;;4893470;29;20674;-65
2021/04/13 09:29:39;;;;;;;10.18;9.07;;;9.20;79.20;;;;;;4891313;29;20247;-65
2021/04/13 09:32:08;;;;;;;11.15;10.02;;;8.60;79.00;;;;;;4890581;29;20214;-65
2021/04/13 09:35:04;;;;;;;12.02;10.82;;;8.20;79.10;;;;;;4892271;29;20314;-65
2021/04/13 09:37:42;;;;;;;13.48;12.10;;;8.00;81.70;;;;;;4878391;29;20290;-65
2021/04/13 09:40:22;;;;;;;11.98;10.85;;;7.80;82.10;;;;;;4893273;29;20211;-65
2021/04/13 09:43:14;;;;;;;11.13;10.00;;;7.50;80.60;;;;;;4889504;29;20309;-64
2021/04/13 09:46:02;;;;;;;11.00;9.50;;;7.30;79.70;;;;;;4893007;29;20215;-65
2021/04/13 09:48:58;;;;;;;12.63;10.48;;;7.80;77.50;;;;;;4893533;29;20677;-66
2021/04/13 09:51:30;;;;;;;10.07;9.10;;;7.80;76.30;;;;;;4889869;29;20832;-64
2021/04/13 09:54:18;;;;;;;10.45;9.35;;;7.80;73.60;;;;;;4890781;29;20207;-64
2021/04/13 09:57:26;;;;;;;9.50;8.60;;;8.40;76.10;;;;;;4892226;29;20247;-64
2021/04/13 10:00:12;;;;;;;8.68;7.88;;;9.70;74.20;;;;;;4890403;29;20302;-65
2021/04/13 10:03:14;;;;;;;8.80;7.88;;;11.30;67.00;;;;;;4891931;29;20709;-65
2021/04/13 10:05:44;;;;;;;10.18;8.70;;;11.80;70.80;;;;;;4851291;29;20310;-65
2021/04/13 10:08:19;;;;;;;9.00;8.10;;;11.80;65.90;;;;;;4885648;29;20223;-65
2021/04/13 10:10:58;;;;;;;9.25;8.25;;;11.20;66.30;;;;;;4889881;29;20262;-65
2021/04/13 10:13:59;;;;;;;8.85;8.05;;;10.70;67.50;;;;;;4891787;29;20309;-64
2021/04/13 10:16:32;;;;;;;9.10;8.30;;;11.30;66.40;;;;;;4889557;29;20233;-64
2021/04/13 10:19:17;;;;;;;8.85;8.05;;;10.80;65.00;;;;;;4890676;29;20203;-65
2021/04/13 10:22:14;;;;;;;8.00;7.30;;;10.60;64.90;;;;;;4891597;29;20225;-64
2021/04/13 10:25:26;;;;;;;7.25;6.55;;;11.10;60.20;;;;;;4891824;29;20211;-65
2021/04/13 10:28:23;;;;;;;8.70;7.80;;;11.80;60.30;;;;;;4874036;29;20207;-64
2021/04/13 10:31:28;;;;;;;7.65;6.72;;;11.90;59.40;;;;;;4890813;29;20199;-64
2021/04/13 10:34:32;;;;;;;8.23;7.45;;;12.50;62.20;;;;;;4882604;29;20297;-64
2021/04/13 10:37:40;;;;;;;7.60;6.88;;;12.50;62.60;;;;;;4888577;29;20230;-65
2021/04/13 10:40:28;;;;;;;6.40;5.85;;;12.00;62.20;;;;;;4888931;29;20211;-64
2021/04/13 10:43:18;;;;;;;7.18;6.50;;;10.90;59.00;;;;;;4889576;29;20541;-64
2021/04/13 10:46:04;;;;;;;6.85;6.20;;;10.80;62.70;;;;;;4885638;29;20204;-64
2021/04/13 10:48:59;;;;;;;6.97;6.20;;;10.60;60.90;;;;;;4888953;29;20267;-65
2021/04/13 10:51:57;;;;;;;7.47;6.78;;;10.70;59.70;;;;;;4885781;29;20203;-64
2021/04/13 10:55:02;;;;;;;7.03;6.38;;;10.90;63.60;;;;;;4887152;29;20240;-65
2021/04/13 10:58:02;;;;;;;8.70;6.18;;;11.10;61.50;;;;;;4883164;29;20238;-64
2021/04/13 11:00:35;;;;;;;6.95;6.35;;;11.60;64.30;;;;;;4887220;29;20218;-64
2021/04/13 11:03:40;;;;;;;8.27;6.60;;;11.80;57.30;;;;;;4886072;29;20769;-65
2021/04/13 11:06:46;;;;;;;8.13;6.60;;;11.40;59.30;;;;;;4872547;29;20218;-64
2021/04/13 11:09:39;;;;;;;7.15;6.00;;;10.50;57.50;;;;;;4874285;29;20214;-64
2021/04/13 11:12:46;;;;;;;6.88;6.22;;;9.50;59.80;;;;;;4885381;29;20298;-64
2021/04/13 11:15:50;;;;;;;6.72;6.13;;;9.10;60.80;;;;;;4884499;29;20214;-64
2021/04/13 11:18:50;;;;;;;7.85;7.10;;;9.10;60.60;;;;;;4890225;29;20230;-64
2021/04/13 11:21:39;;;;;;;6.80;6.20;;;8.70;62.20;;;;;;4885933;29;20222;-64
2021/04/13 11:24:35;;;;;;;7.90;6.47;;;8.40;62.40;;;;;;4865547;29;20266;-64
2021/04/13 11:27:45;;;;;;;6.72;6.13;;;8.30;63.00;;;;;;4890314;29;20203;-64
2021/04/13 11:30:52;;;;;;;5.43;4.93;;;8.90;61.30;;;;;;4885917;29;20707;-64
2021/04/13 11:33:35;;;;;;;7.10;6.15;;;9.50;58.60;;;;;;4882265;29;20223;-64
2021/04/13 11:36:10;;;;;;;6.90;6.30;;;9.60;57.10;;;;;;4881341;29;20268;-64
2021/04/13 11:38:49;;;;;;;6.15;5.65;;;9.60;59.30;;;;;;4883001;29;20206;-64
2021/04/13 11:41:24;;;;;;;7.70;7.00;;;9.90;63.10;;;;;;4890780;29;20211;-64
2021/04/13 11:43:56;;;;;;;6.28;5.68;;;10.10;61.90;;;;;;4887177;29;20226;-64
2021/04/13 11:46:39;;;;;;;7.10;6.40;;;10.40;62.00;;;;;;4888759;29;20218;-64
2021/04/13 11:49:12;;;;;;;7.35;6.65;;;10.40;59.40;;;;;;4881451;29;20578;-64
2021/04/13 11:51:49;;;;;;;8.07;7.00;;;10.60;62.60;;;;;;4887349;29;20215;-64
2021/04/13 11:54:53;;;;;;;8.40;7.60;;;11.00;64.50;;;;;;4890814;29;20215;-64
2021/04/13 11:57:24;;;;;;;7.03;6.32;;;11.00;63.90;;;;;;4884470;29;20234;-64
2021/04/13 12:00:28;;;;;;;6.60;6.10;;;11.00;61.90;;;;;;4891752;29;20255;-64
2021/04/13 12:03:05;;;;;;;6.65;6.13;;;10.90;60.40;;;;;;4890401;29;20331;-64
2021/04/13 12:05:41;;;;;;;6.20;5.60;;;10.20;59.40;;;;;;4888865;29;20252;-64
2021/04/13 12:08:22;;;;;;;6.85;6.13;;;10.00;56.50;;;;;;4885469;29;20233;-64
2021/04/13 12:10:56;;;;;;;6.03;5.50;;;10.10;58.10;;;;;;4890609;29;20215;-64
2021/04/13 12:13:42;;;;;;;6.55;5.95;;;10.20;54.20;;;;;;4888171;29;20206;-64
2021/04/13 12:16:11;;;;;;;6.97;5.97;;;10.40;57.30;;;;;;4890047;29;20207;-64
2021/04/13 12:19:11;;;;;;;6.45;5.85;;;10.70;59.40;;;;;;4889737;29;20211;-64
2021/04/13 12:21:57;;;;;;;7.72;6.93;;;10.20;54.70;;;;;;4886645;29;20211;-63
2021/04/13 12:24:50;;;;;;;7.90;7.10;;;9.90;57.20;;;;;;4889257;29;20687;-63
2021/04/13 12:27:55;;;;;;;6.85;6.25;;;10.30;59.10;;;;;;4885949;29;20733;-63
2021/04/13 12:31:03;;;;;;;6.57;5.97;;;10.60;59.90;;;;;;4887252;29;20203;-64
2021/04/13 12:33:57;;;;;;;7.60;6.63;;;10.00;60.00;;;;;;4886876;29;20218;-63
2021/04/13 12:36:50;;;;;;;9.13;7.20;;;9.00;64.10;;;;;;4887112;29;20242;-63
2021/04/13 12:39:42;;;;;;;7.25;6.55;;;8.20;67.60;;;;;;4886045;29;20230;-64
2021/04/13 12:42:25;;;;;;;7.38;6.65;;;8.00;68.10;;;;;;4884600;29;20661;-63
2021/04/13 12:45:26;;;;;;;6.25;5.65;;;8.00;70.90;;;;;;4890212;29;20199;-64
2021/04/13 12:47:55;;;;;;;5.97;5.47;;;7.60;67.60;;;;;;4886045;29;20214;-64
2021/04/13 12:50:27;;;;;;;5.50;5.00;;;7.60;67.30;;;;;;4883880;29;20264;-64
2021/04/13 12:52:54;;;;;;;5.20;4.15;;;7.90;65.30;;;;;;4886866;29;20207;-64
2021/04/13 12:55:22;;;;;;;5.55;5.05;;;7.90;62.40;;;;;;4887127;29;20294;-64
2021/04/13 12:57:55;;;;;;;4.38;3.97;;;7.70;61.70;;;;;;4890239;29;20243;-64
2021/04/13 13:00:23;;;;;;;5.55;5.05;;;7.60;61.20;;;;;;4889340;29;20211;-63
2021/04/13 13:02:51;;;;;;;5.28;4.88;;;7.80;63.90;;;;;;4887071;29;20215;-63
2021/04/13 13:05:23;;;;;;;5.57;5.15;;;7.90;61.80;;;;;;4888069;29;20259;-64
2021/04/13 13:07:55;;;;;;;5.18;4.78;;;7.90;60.00;;;;;;4887748;29;20276;-64
2021/04/13 13:10:28;;;;;;;5.45;4.97;;;7.90;59.70;;;;;;4890064;29;20210;-64
2021/04/13 13:13:01;;;;;;;6.65;6.00;;;8.00;60.20;;;;;;4891763;29;20207;-64
2021/04/13 13:15:33;;;;;;;6.28;5.28;;;8.10;60.60;;;;;;4888647;29;20214;-63
2021/04/13 13:18:14;;;;;;;6.05;5.45;;;8.20;59.40;;;;;;4892169;29;20231;-65
2021/04/13 13:20:41;;;;;;;5.25;4.85;;;8.30;58.60;;;;;;4893051;29;20310;-64
2021/04/13 13:23:13;;;;;;;5.40;5.00;;;8.60;58.50;;;;;;4887437;29;20587;-64
2021/04/13 13:25:40;;;;;;;6.00;5.50;;;8.90;59.80;;;;;;4889619;29;20219;-64
2021/04/13 13:28:09;;;;;;;5.85;5.25;;;9.10;57.60;;;;;;4893941;29;20298;-64